Terminal Aerodrome Forecast
Issued by NWS Omaha/Valley, NE

Home | Current Version | Previous Version | Text Only | Print | Product List | Glossary On
Versions: 1 2 3 4 5 6 7 8 9 10 11 12 13 14 15 16 17 18 19 20 21 22 23 24 25 26 27 28 29 30 31 32 33
000
FTUS43 KOAX 010520
TAFLNK
TAF
KLNK 010520Z 0106/0206 21005KT P6SM BKN150
     FM010800 31006KT P6SM BKN150
      TEMPO 0110/0113 5SM BR SCT150
     FM011700 34010KT P6SM BKN250=

USA.gov is the U.S. government's official web portal to all federal, state and local government web resources and services.